sensor_id;sensor_type;location;lat;lon;timestamp;P1;durP1;ratioP1;P2;durP2;ratioP2
17727;SDS011;8984;49.268;12.302;2023-11-19T00:00:47;6.43;;;5.23;;
17727;SDS011;8984;49.268;12.302;2023-11-19T00:03:15;11.87;;;6.77;;
17727;SDS011;8984;49.268;12.302;2023-11-19T00:05:42;16.17;;;9.00;;
17727;SDS011;8984;49.268;12.302;2023-11-19T00:08:11;11.50;;;6.93;;
17727;SDS011;8984;49.268;12.302;2023-11-19T00:10:37;10.77;;;7.00;;
17727;SDS011;8984;49.268;12.302;2023-11-19T00:13:04;14.63;;;8.70;;
17727;SDS011;8984;49.268;12.302;2023-11-19T00:15:32;11.57;;;7.27;;
17727;SDS011;8984;49.268;12.302;2023-11-19T00:17:58;5.40;;;4.47;;
17727;SDS011;8984;49.268;12.302;2023-11-19T00:20:29;11.03;;;7.03;;
17727;SDS011;8984;49.268;12.302;2023-11-19T00:22:56;8.83;;;5.80;;
17727;SDS011;8984;49.268;12.302;2023-11-19T00:25:24;6.37;;;4.53;;
17727;SDS011;8984;49.268;12.302;2023-11-19T00:27:51;5.50;;;4.60;;
17727;SDS011;8984;49.268;12.302;2023-11-19T00:30:18;4.17;;;3.77;;
17727;SDS011;8984;49.268;12.302;2023-11-19T00:32:45;4.13;;;3.73;;
17727;SDS011;8984;49.268;12.302;2023-11-19T00:35:12;4.37;;;3.97;;
17727;SDS011;8984;49.268;12.302;2023-11-19T00:37:40;3.87;;;3.43;;
17727;SDS011;8984;49.268;12.302;2023-11-19T00:40:08;3.40;;;3.10;;
17727;SDS011;8984;49.268;12.302;2023-11-19T00:42:37;4.13;;;3.73;;
17727;SDS011;8984;49.268;12.302;2023-11-19T00:45:04;3.83;;;3.40;;
17727;SDS011;8984;49.268;12.302;2023-11-19T00:47:33;3.73;;;3.30;;
17727;SDS011;8984;49.268;12.302;2023-11-19T00:50:00;3.10;;;2.80;;
17727;SDS011;8984;49.268;12.302;2023-11-19T00:52:27;3.50;;;3.20;;
17727;SDS011;8984;49.268;12.302;2023-11-19T00:54:54;4.47;;;3.43;;
17727;SDS011;8984;49.268;12.302;2023-11-19T00:57:21;3.27;;;3.00;;
17727;SDS011;8984;49.268;12.302;2023-11-19T00:59:50;4.10;;;3.70;;
17727;SDS011;8984;49.268;12.302;2023-11-19T01:02:17;3.93;;;3.53;;
17727;SDS011;8984;49.268;12.302;2023-11-19T01:04:44;3.30;;;3.00;;
17727;SDS011;8984;49.268;12.302;2023-11-19T01:07:11;3.37;;;3.07;;
17727;SDS011;8984;49.268;12.302;2023-11-19T01:09:38;3.33;;;3.03;;
17727;SDS011;8984;49.268;12.302;2023-11-19T01:12:05;3.93;;;3.53;;
17727;SDS011;8984;49.268;12.302;2023-11-19T01:14:34;3.37;;;3.07;;
17727;SDS011;8984;49.268;12.302;2023-11-19T01:17:02;3.60;;;3.30;;
17727;SDS011;8984;49.268;12.302;2023-11-19T01:19:29;4.20;;;3.43;;
17727;SDS011;8984;49.268;12.302;2023-11-19T01:21:56;3.70;;;3.20;;
17727;SDS011;8984;49.268;12.302;2023-11-19T01:24:23;3.53;;;3.20;;
17727;SDS011;8984;49.268;12.302;2023-11-19T01:26:53;3.10;;;2.80;;
17727;SDS011;8984;49.268;12.302;2023-11-19T01:29:20;3.60;;;3.30;;
17727;SDS011;8984;49.268;12.302;2023-11-19T01:31:47;3.83;;;3.43;;
17727;SDS011;8984;49.268;12.302;2023-11-19T01:34:15;4.20;;;3.80;;
17727;SDS011;8984;49.268;12.302;2023-11-19T01:36:41;3.50;;;3.20;;
17727;SDS011;8984;49.268;12.302;2023-11-19T01:39:08;4.57;;;3.97;;
17727;SDS011;8984;49.268;12.302;2023-11-19T01:41:35;4.10;;;3.70;;
17727;SDS011;8984;49.268;12.302;2023-11-19T01:44:04;3.90;;;3.60;;
17727;SDS011;8984;49.268;12.302;2023-11-19T01:46:32;3.40;;;3.10;;
17727;SDS011;8984;49.268;12.302;2023-11-19T01:49:00;3.73;;;3.17;;
17727;SDS011;8984;49.268;12.302;2023-11-19T01:51:29;3.47;;;3.17;;
17727;SDS011;8984;49.268;12.302;2023-11-19T01:53:57;3.50;;;3.20;;
17727;SDS011;8984;49.268;12.302;2023-11-19T01:56:24;3.53;;;3.23;;
17727;SDS011;8984;49.268;12.302;2023-11-19T01:58:53;4.13;;;2.93;;
17727;SDS011;8984;49.268;12.302;2023-11-19T02:01:21;3.67;;;3.37;;
17727;SDS011;8984;49.268;12.302;2023-11-19T02:03:48;3.30;;;3.00;;
17727;SDS011;8984;49.268;12.302;2023-11-19T02:06:15;3.57;;;3.27;;
17727;SDS011;8984;49.268;12.302;2023-11-19T02:08:43;3.97;;;3.57;;
17727;SDS011;8984;49.268;12.302;2023-11-19T02:11:10;3.90;;;3.60;;
17727;SDS011;8984;49.268;12.302;2023-11-19T02:13:37;3.50;;;3.20;;
17727;SDS011;8984;49.268;12.302;2023-11-19T02:16:06;3.60;;;3.20;;
17727;SDS011;8984;49.268;12.302;2023-11-19T02:18:34;3.20;;;2.90;;
17727;SDS011;8984;49.268;12.302;2023-11-19T02:21:01;3.57;;;3.27;;
17727;SDS011;8984;49.268;12.302;2023-11-19T02:23:30;4.20;;;3.10;;
17727;SDS011;8984;49.268;12.302;2023-11-19T02:26:12;3.53;;;3.23;;
17727;SDS011;8984;49.268;12.302;2023-11-19T02:28:44;3.30;;;3.00;;
17727;SDS011;8984;49.268;12.302;2023-11-19T02:31:11;3.20;;;2.90;;
17727;SDS011;8984;49.268;12.302;2023-11-19T02:33:38;3.40;;;3.10;;
17727;SDS011;8984;49.268;12.302;2023-11-19T02:36:05;3.20;;;2.90;;
17727;SDS011;8984;49.268;12.302;2023-11-19T02:38:33;2.50;;;2.30;;
17727;SDS011;8984;49.268;12.302;2023-11-19T02:41:02;3.20;;;2.90;;
17727;SDS011;8984;49.268;12.302;2023-11-19T02:43:30;3.00;;;2.70;;
17727;SDS011;8984;49.268;12.302;2023-11-19T02:45:59;2.50;;;2.30;;
17727;SDS011;8984;49.268;12.302;2023-11-19T02:48:27;2.80;;;2.60;;
17727;SDS011;8984;49.268;12.302;2023-11-19T02:50:53;2.63;;;2.43;;
17727;SDS011;8984;49.268;12.302;2023-11-19T02:53:23;2.57;;;2.37;;
17727;SDS011;8984;49.268;12.302;2023-11-19T02:55:52;2.50;;;2.30;;
17727;SDS011;8984;49.268;12.302;2023-11-19T02:58:25;2.87;;;2.40;;
17727;SDS011;8984;49.268;12.302;2023-11-19T03:00:53;2.17;;;2.00;;
17727;SDS011;8984;49.268;12.302;2023-11-19T03:03:25;2.50;;;2.30;;
17727;SDS011;8984;49.268;12.302;2023-11-19T03:06:03;2.00;;;1.90;;
17727;SDS011;8984;49.268;12.302;2023-11-19T03:08:31;2.10;;;1.90;;
17727;SDS011;8984;49.268;12.302;2023-11-19T03:10:58;2.30;;;2.10;;
17727;SDS011;8984;49.268;12.302;2023-11-19T03:13:25;1.97;;;1.87;;
17727;SDS011;8984;49.268;12.302;2023-11-19T03:15:51;1.70;;;1.60;;
17727;SDS011;8984;49.268;12.302;2023-11-19T03:18:18;2.00;;;1.80;;
17727;SDS011;8984;49.268;12.302;2023-11-19T03:20:47;2.20;;;2.00;;
17727;SDS011;8984;49.268;12.302;2023-11-19T03:23:14;1.70;;;1.60;;
17727;SDS011;8984;49.268;12.302;2023-11-19T03:25:41;2.33;;;1.83;;
17727;SDS011;8984;49.268;12.302;2023-11-19T03:28:09;1.77;;;1.67;;
17727;SDS011;8984;49.268;12.302;2023-11-19T03:30:36;1.53;;;1.43;;
17727;SDS011;8984;49.268;12.302;2023-11-19T03:33:03;1.80;;;1.70;;
17727;SDS011;8984;49.268;12.302;2023-11-19T03:35:30;1.70;;;1.60;;
17727;SDS011;8984;49.268;12.302;2023-11-19T03:37:59;1.70;;;1.60;;
17727;SDS011;8984;49.268;12.302;2023-11-19T03:40:26;1.80;;;1.70;;
17727;SDS011;8984;49.268;12.302;2023-11-19T03:42:55;1.70;;;1.60;;
17727;SDS011;8984;49.268;12.302;2023-11-19T03:45:22;1.80;;;1.70;;
17727;SDS011;8984;49.268;12.302;2023-11-19T03:47:49;1.57;;;1.47;;
17727;SDS011;8984;49.268;12.302;2023-11-19T03:50:16;1.63;;;1.53;;
17727;SDS011;8984;49.268;12.302;2023-11-19T03:52:45;1.77;;;1.60;;
17727;SDS011;8984;49.268;12.302;2023-11-19T03:55:13;1.70;;;1.60;;
17727;SDS011;8984;49.268;12.302;2023-11-19T03:57:40;1.57;;;1.47;;
17727;SDS011;8984;49.268;12.302;2023-11-19T04:00:07;1.33;;;1.23;;
17727;SDS011;8984;49.268;12.302;2023-11-19T04:02:35;1.70;;;1.60;;
17727;SDS011;8984;49.268;12.302;2023-11-19T04:05:02;1.50;;;1.40;;
17727;SDS011;8984;49.268;12.302;2023-11-19T04:07:30;1.60;;;1.50;;
17727;SDS011;8984;49.268;12.302;2023-11-19T04:09:56;1.40;;;1.30;;
17727;SDS011;8984;49.268;12.302;2023-11-19T04:12:25;1.70;;;1.60;;
17727;SDS011;8984;49.268;12.302;2023-11-19T04:14:51;3.10;;;1.60;;
17727;SDS011;8984;49.268;12.302;2023-11-19T04:17:18;1.90;;;1.80;;
17727;SDS011;8984;49.268;12.302;2023-11-19T04:19:45;1.97;;;1.50;;
17727;SDS011;8984;49.268;12.302;2023-11-19T04:22:12;2.17;;;1.80;;
17727;SDS011;8984;49.268;12.302;2023-11-19T04:24:39;1.80;;;1.70;;
17727;SDS011;8984;49.268;12.302;2023-11-19T04:27:09;1.80;;;1.70;;
17727;SDS011;8984;49.268;12.302;2023-11-19T04:29:37;2.17;;;1.80;;
17727;SDS011;8984;49.268;12.302;2023-11-19T04:32:04;2.07;;;1.87;;
17727;SDS011;8984;49.268;12.302;2023-11-19T04:34:32;2.23;;;1.93;;
17727;SDS011;8984;49.268;12.302;2023-11-19T04:36:58;2.17;;;1.90;;
17727;SDS011;8984;49.268;12.302;2023-11-19T04:39:27;1.80;;;1.70;;
17727;SDS011;8984;49.268;12.302;2023-11-19T04:41:53;2.07;;;1.90;;
17727;SDS011;8984;49.268;12.302;2023-11-19T04:44:20;3.97;;;1.80;;
17727;SDS011;8984;49.268;12.302;2023-11-19T04:46:48;1.50;;;1.40;;
17727;SDS011;8984;49.268;12.302;2023-11-19T04:49:15;1.77;;;1.67;;
17727;SDS011;8984;49.268;12.302;2023-11-19T04:51:44;1.60;;;1.50;;
17727;SDS011;8984;49.268;12.302;2023-11-19T04:54:12;1.73;;;1.63;;
17727;SDS011;8984;49.268;12.302;2023-11-19T04:56:39;1.13;;;1.13;;
17727;SDS011;8984;49.268;12.302;2023-11-19T04:59:06;1.73;;;1.40;;
17727;SDS011;8984;49.268;12.302;2023-11-19T05:01:34;1.60;;;1.50;;
17727;SDS011;8984;49.268;12.302;2023-11-19T05:04:02;1.50;;;1.40;;
17727;SDS011;8984;49.268;12.302;2023-11-19T05:06:29;1.60;;;1.50;;
17727;SDS011;8984;49.268;12.302;2023-11-19T05:08:58;1.50;;;1.40;;
17727;SDS011;8984;49.268;12.302;2023-11-19T05:11:29;2.87;;;2.03;;
17727;SDS011;8984;49.268;12.302;2023-11-19T05:13:56;1.70;;;1.60;;
17727;SDS011;8984;49.268;12.302;2023-11-19T05:16:24;1.50;;;1.40;;
17727;SDS011;8984;49.268;12.302;2023-11-19T05:18:51;1.60;;;1.50;;
17727;SDS011;8984;49.268;12.302;2023-11-19T05:21:19;1.60;;;1.50;;
17727;SDS011;8984;49.268;12.302;2023-11-19T05:23:46;1.40;;;1.30;;
17727;SDS011;8984;49.268;12.302;2023-11-19T05:26:17;1.30;;;1.20;;
17727;SDS011;8984;49.268;12.302;2023-11-19T05:28:44;1.43;;;1.33;;
17727;SDS011;8984;49.268;12.302;2023-11-19T05:31:11;1.40;;;1.30;;
17727;SDS011;8984;49.268;12.302;2023-11-19T05:33:38;2.20;;;2.10;;
17727;SDS011;8984;49.268;12.302;2023-11-19T05:36:05;2.40;;;2.20;;
17727;SDS011;8984;49.268;12.302;2023-11-19T05:38:34;2.17;;;2.00;;
17727;SDS011;8984;49.268;12.302;2023-11-19T05:41:01;2.80;;;2.60;;
17727;SDS011;8984;49.268;12.302;2023-11-19T05:43:28;2.50;;;2.30;;
17727;SDS011;8984;49.268;12.302;2023-11-19T05:45:54;1.80;;;1.70;;
17727;SDS011;8984;49.268;12.302;2023-11-19T05:48:21;1.87;;;1.77;;
17727;SDS011;8984;49.268;12.302;2023-11-19T05:50:48;3.20;;;2.90;;
17727;SDS011;8984;49.268;12.302;2023-11-19T05:53:15;1.80;;;1.70;;
17727;SDS011;8984;49.268;12.302;2023-11-19T05:55:43;1.70;;;1.60;;
17727;SDS011;8984;49.268;12.302;2023-11-19T05:58:14;1.90;;;1.80;;
17727;SDS011;8984;49.268;12.302;2023-11-19T06:00:40;2.90;;;2.70;;
17727;SDS011;8984;49.268;12.302;2023-11-19T06:03:08;2.33;;;2.13;;
17727;SDS011;8984;49.268;12.302;2023-11-19T06:05:35;2.97;;;2.77;;
17727;SDS011;8984;49.268;12.302;2023-11-19T06:08:02;5.00;;;2.60;;
17727;SDS011;8984;49.268;12.302;2023-11-19T06:10:29;3.10;;;2.90;;
17727;SDS011;8984;49.268;12.302;2023-11-19T06:12:58;2.50;;;2.30;;
17727;SDS011;8984;49.268;12.302;2023-11-19T06:15:25;2.63;;;2.43;;
17727;SDS011;8984;49.268;12.302;2023-11-19T06:17:52;2.50;;;2.30;;
17727;SDS011;8984;49.268;12.302;2023-11-19T06:20:19;2.63;;;2.43;;
17727;SDS011;8984;49.268;12.302;2023-11-19T06:22:46;2.47;;;2.27;;
17727;SDS011;8984;49.268;12.302;2023-11-19T06:25:13;2.13;;;2.03;;
17727;SDS011;8984;49.268;12.302;2023-11-19T06:27:41;2.27;;;2.07;;
17727;SDS011;8984;49.268;12.302;2023-11-19T06:30:10;1.90;;;1.80;;
17727;SDS011;8984;49.268;12.302;2023-11-19T06:32:37;2.47;;;2.27;;
17727;SDS011;8984;49.268;12.302;2023-11-19T06:35:05;3.30;;;3.00;;
17727;SDS011;8984;49.268;12.302;2023-11-19T06:37:32;3.13;;;2.93;;
17727;SDS011;8984;49.268;12.302;2023-11-19T06:39:59;3.00;;;2.80;;
17727;SDS011;8984;49.268;12.302;2023-11-19T06:42:26;2.60;;;2.40;;
17727;SDS011;8984;49.268;12.302;2023-11-19T06:44:52;3.63;;;3.33;;
17727;SDS011;8984;49.268;12.302;2023-11-19T06:47:24;2.93;;;2.70;;
17727;SDS011;8984;49.268;12.302;2023-11-19T06:49:51;2.70;;;2.50;;
17727;SDS011;8984;49.268;12.302;2023-11-19T06:52:18;3.20;;;2.90;;
17727;SDS011;8984;49.268;12.302;2023-11-19T06:54:45;2.83;;;2.63;;
17727;SDS011;8984;49.268;12.302;2023-11-19T06:57:12;3.30;;;3.07;;
17727;SDS011;8984;49.268;12.302;2023-11-19T06:59:39;3.33;;;3.13;;
17727;SDS011;8984;49.268;12.302;2023-11-19T07:02:06;3.43;;;3.13;;
17727;SDS011;8984;49.268;12.302;2023-11-19T07:04:34;3.67;;;3.37;;
17727;SDS011;8984;49.268;12.302;2023-11-19T07:07:01;3.17;;;2.93;;
17727;SDS011;8984;49.268;12.302;2023-11-19T07:09:28;3.27;;;2.97;;
17727;SDS011;8984;49.268;12.302;2023-11-19T07:11:54;3.80;;;3.50;;
17727;SDS011;8984;49.268;12.302;2023-11-19T07:14:21;3.90;;;3.60;;
17727;SDS011;8984;49.268;12.302;2023-11-19T07:16:48;4.47;;;4.07;;
17727;SDS011;8984;49.268;12.302;2023-11-19T07:19:16;4.33;;;3.93;;
17727;SDS011;8984;49.268;12.302;2023-11-19T07:21:44;4.30;;;3.90;;
17727;SDS011;8984;49.268;12.302;2023-11-19T07:24:11;5.13;;;4.67;;
17727;SDS011;8984;49.268;12.302;2023-11-19T07:26:40;4.57;;;4.17;;
17727;SDS011;8984;49.268;12.302;2023-11-19T07:29:08;5.70;;;5.10;;
17727;SDS011;8984;49.268;12.302;2023-11-19T07:31:35;5.20;;;4.70;;
17727;SDS011;8984;49.268;12.302;2023-11-19T07:34:02;5.67;;;4.70;;
17727;SDS011;8984;49.268;12.302;2023-11-19T07:36:30;5.47;;;4.97;;
17727;SDS011;8984;49.268;12.302;2023-11-19T07:38:58;5.13;;;4.63;;
17727;SDS011;8984;49.268;12.302;2023-11-19T07:41:25;5.23;;;4.73;;
17727;SDS011;8984;49.268;12.302;2023-11-19T07:43:52;5.10;;;4.60;;
17727;SDS011;8984;49.268;12.302;2023-11-19T07:46:19;6.73;;;6.03;;
17727;SDS011;8984;49.268;12.302;2023-11-19T07:48:46;5.20;;;4.70;;
17727;SDS011;8984;49.268;12.302;2023-11-19T07:51:13;5.33;;;4.83;;
17727;SDS011;8984;49.268;12.302;2023-11-19T07:53:40;8.27;;;5.67;;
17727;SDS011;8984;49.268;12.302;2023-11-19T07:56:09;12.70;;;7.90;;
17727;SDS011;8984;49.268;12.302;2023-11-19T07:58:36;6.60;;;5.50;;
17727;SDS011;8984;49.268;12.302;2023-11-19T08:01:03;5.10;;;4.60;;
17727;SDS011;8984;49.268;12.302;2023-11-19T08:03:31;4.67;;;3.90;;
17727;SDS011;8984;49.268;12.302;2023-11-19T08:05:59;4.93;;;3.47;;
17727;SDS011;8984;49.268;12.302;2023-11-19T08:08:26;3.83;;;3.30;;
17727;SDS011;8984;49.268;12.302;2023-11-19T08:10:54;3.60;;;3.30;;
17727;SDS011;8984;49.268;12.302;2023-11-19T08:13:23;4.80;;;4.40;;
17727;SDS011;8984;49.268;12.302;2023-11-19T08:15:49;4.37;;;3.97;;
17727;SDS011;8984;49.268;12.302;2023-11-19T08:18:16;4.33;;;3.93;;
17727;SDS011;8984;49.268;12.302;2023-11-19T08:20:44;4.07;;;3.67;;
17727;SDS011;8984;49.268;12.302;2023-11-19T08:23:14;4.53;;;4.13;;
17727;SDS011;8984;49.268;12.302;2023-11-19T08:25:40;4.47;;;3.10;;
17727;SDS011;8984;49.268;12.302;2023-11-19T08:28:07;3.73;;;3.20;;
17727;SDS011;8984;49.268;12.302;2023-11-19T08:30:35;2.80;;;2.40;;
17727;SDS011;8984;49.268;12.302;2023-11-19T08:33:02;3.10;;;2.80;;
17727;SDS011;8984;49.268;12.302;2023-11-19T08:35:31;2.90;;;2.70;;
17727;SDS011;8984;49.268;12.302;2023-11-19T08:37:57;3.40;;;3.10;;
17727;SDS011;8984;49.268;12.302;2023-11-19T08:40:25;4.87;;;4.37;;
17727;SDS011;8984;49.268;12.302;2023-11-19T08:42:52;3.80;;;3.50;;
17727;SDS011;8984;49.268;12.302;2023-11-19T08:45:18;3.30;;;3.10;;
17727;SDS011;8984;49.268;12.302;2023-11-19T08:47:47;2.80;;;2.60;;
17727;SDS011;8984;49.268;12.302;2023-11-19T08:50:13;2.50;;;2.30;;
17727;SDS011;8984;49.268;12.302;2023-11-19T08:52:40;2.50;;;2.30;;
17727;SDS011;8984;49.268;12.302;2023-11-19T08:55:07;2.10;;;2.00;;
17727;SDS011;8984;49.268;12.302;2023-11-19T08:57:35;2.37;;;2.17;;
17727;SDS011;8984;49.268;12.302;2023-11-19T09:00:02;2.53;;;2.33;;
17727;SDS011;8984;49.268;12.302;2023-11-19T09:02:32;2.67;;;2.47;;
17727;SDS011;8984;49.268;12.302;2023-11-19T09:05:00;3.17;;;2.87;;
17727;SDS011;8984;49.268;12.302;2023-11-19T09:07:28;4.00;;;3.70;;
17727;SDS011;8984;49.268;12.302;2023-11-19T09:09:54;3.73;;;3.07;;
17727;SDS011;8984;49.268;12.302;2023-11-19T09:12:21;4.07;;;3.67;;
17727;SDS011;8984;49.268;12.302;2023-11-19T09:14:48;6.17;;;5.43;;
17727;SDS011;8984;49.268;12.302;2023-11-19T09:17:15;4.30;;;3.90;;
17727;SDS011;8984;49.268;12.302;2023-11-19T09:19:43;5.53;;;5.03;;
17727;SDS011;8984;49.268;12.302;2023-11-19T09:22:11;4.97;;;4.57;;
17727;SDS011;8984;49.268;12.302;2023-11-19T09:24:38;4.93;;;4.43;;
17727;SDS011;8984;49.268;12.302;2023-11-19T09:27:04;4.00;;;3.70;;
17727;SDS011;8984;49.268;12.302;2023-11-19T09:29:31;3.50;;;3.20;;
17727;SDS011;8984;49.268;12.302;2023-11-19T09:31:59;3.73;;;3.43;;
17727;SDS011;8984;49.268;12.302;2023-11-19T09:34:26;3.50;;;3.20;;
17727;SDS011;8984;49.268;12.302;2023-11-19T09:36:53;5.03;;;3.93;;
17727;SDS011;8984;49.268;12.302;2023-11-19T09:39:21;3.50;;;3.00;;
17727;SDS011;8984;49.268;12.302;2023-11-19T09:41:47;3.27;;;2.97;;
17727;SDS011;8984;49.268;12.302;2023-11-19T09:44:14;3.30;;;3.00;;
17727;SDS011;8984;49.268;12.302;2023-11-19T09:46:43;4.40;;;4.00;;
17727;SDS011;8984;49.268;12.302;2023-11-19T09:49:12;4.90;;;4.40;;
17727;SDS011;8984;49.268;12.302;2023-11-19T09:51:40;4.13;;;3.73;;
17727;SDS011;8984;49.268;12.302;2023-11-19T09:54:07;4.53;;;4.13;;
17727;SDS011;8984;49.268;12.302;2023-11-19T09:56:35;3.87;;;3.57;;
17727;SDS011;8984;49.268;12.302;2023-11-19T09:59:04;4.53;;;4.13;;
17727;SDS011;8984;49.268;12.302;2023-11-19T10:01:31;4.13;;;3.30;;
17727;SDS011;8984;49.268;12.302;2023-11-19T10:03:59;4.07;;;3.77;;
17727;SDS011;8984;49.268;12.302;2023-11-19T10:06:27;6.93;;;5.40;;
17727;SDS011;8984;49.268;12.302;2023-11-19T10:08:54;4.80;;;4.40;;
17727;SDS011;8984;49.268;12.302;2023-11-19T10:11:21;4.20;;;3.80;;
17727;SDS011;8984;49.268;12.302;2023-11-19T10:13:50;4.97;;;4.43;;
17727;SDS011;8984;49.268;12.302;2023-11-19T10:16:19;4.60;;;4.13;;
17727;SDS011;8984;49.268;12.302;2023-11-19T10:18:46;4.90;;;4.23;;
17727;SDS011;8984;49.268;12.302;2023-11-19T10:21:16;3.30;;;3.00;;
17727;SDS011;8984;49.268;12.302;2023-11-19T10:23:50;3.03;;;2.73;;
17727;SDS011;8984;49.268;12.302;2023-11-19T10:26:18;3.47;;;3.17;;
17727;SDS011;8984;49.268;12.302;2023-11-19T10:28:46;3.80;;;3.40;;
17727;SDS011;8984;49.268;12.302;2023-11-19T10:31:15;3.47;;;3.17;;
17727;SDS011;8984;49.268;12.302;2023-11-19T10:33:42;3.80;;;3.47;;
17727;SDS011;8984;49.268;12.302;2023-11-19T10:36:10;3.57;;;3.00;;
17727;SDS011;8984;49.268;12.302;2023-11-19T10:38:38;2.90;;;2.60;;
17727;SDS011;8984;49.268;12.302;2023-11-19T10:41:05;2.93;;;2.70;;
17727;SDS011;8984;49.268;12.302;2023-11-19T10:43:42;3.30;;;2.90;;
17727;SDS011;8984;49.268;12.302;2023-11-19T10:46:10;4.67;;;4.00;;
17727;SDS011;8984;49.268;12.302;2023-11-19T10:48:39;4.13;;;3.70;;
17727;SDS011;8984;49.268;12.302;2023-11-19T10:51:07;4.30;;;3.90;;
17727;SDS011;8984;49.268;12.302;2023-11-19T10:53:36;3.70;;;3.30;;
17727;SDS011;8984;49.268;12.302;2023-11-19T10:56:06;3.90;;;3.33;;
17727;SDS011;8984;49.268;12.302;2023-11-19T10:58:37;3.50;;;3.20;;
17727;SDS011;8984;49.268;12.302;2023-11-19T11:01:11;3.80;;;3.30;;
17727;SDS011;8984;49.268;12.302;2023-11-19T11:03:43;3.40;;;3.10;;
17727;SDS011;8984;49.268;12.302;2023-11-19T11:06:11;3.83;;;3.17;;
17727;SDS011;8984;49.268;12.302;2023-11-19T11:08:39;3.63;;;2.73;;
17727;SDS011;8984;49.268;12.302;2023-11-19T11:11:07;3.40;;;3.10;;
17727;SDS011;8984;49.268;12.302;2023-11-19T11:13:35;2.60;;;2.40;;
17727;SDS011;8984;49.268;12.302;2023-11-19T11:16:08;3.23;;;2.80;;
17727;SDS011;8984;49.268;12.302;2023-11-19T11:18:36;3.37;;;2.23;;
17727;SDS011;8984;49.268;12.302;2023-11-19T11:21:05;2.83;;;2.57;;
17727;SDS011;8984;49.268;12.302;2023-11-19T11:23:37;2.60;;;2.40;;
17727;SDS011;8984;49.268;12.302;2023-11-19T11:29:26;5.33;;;2.73;;
17727;SDS011;8984;49.268;12.302;2023-11-19T11:32:06;3.27;;;2.87;;
17727;SDS011;8984;49.268;12.302;2023-11-19T11:34:49;3.20;;;2.90;;
17727;SDS011;8984;49.268;12.302;2023-11-19T11:37:29;3.70;;;2.43;;
17727;SDS011;8984;49.268;12.302;2023-11-19T11:40:00;6.67;;;4.63;;
17727;SDS011;8984;49.268;12.302;2023-11-19T11:42:31;4.90;;;4.40;;
17727;SDS011;8984;49.268;12.302;2023-11-19T11:45:01;5.80;;;4.93;;
17727;SDS011;8984;49.268;12.302;2023-11-19T11:50:33;2.77;;;2.47;;
17727;SDS011;8984;49.268;12.302;2023-11-19T11:53:16;2.40;;;2.20;;
17727;SDS011;8984;49.268;12.302;2023-11-19T11:55:53;2.37;;;2.13;;
17727;SDS011;8984;49.268;12.302;2023-11-19T11:58:31;2.50;;;2.30;;
17727;SDS011;8984;49.268;12.302;2023-11-19T12:01:01;2.53;;;1.67;;
17727;SDS011;8984;49.268;12.302;2023-11-19T12:03:30;1.80;;;1.70;;
17727;SDS011;8984;49.268;12.302;2023-11-19T12:05:58;1.70;;;1.40;;
17727;SDS011;8984;49.268;12.302;2023-11-19T12:08:27;1.93;;;1.83;;
17727;SDS011;8984;49.268;12.302;2023-11-19T12:10:56;2.10;;;1.90;;
17727;SDS011;8984;49.268;12.302;2023-11-19T12:16:24;2.00;;;1.80;;
17727;SDS011;8984;49.268;12.302;2023-11-19T12:18:52;2.57;;;1.60;;
17727;SDS011;8984;49.268;12.302;2023-11-19T12:21:29;1.80;;;1.70;;
17727;SDS011;8984;49.268;12.302;2023-11-19T12:23:59;1.70;;;1.50;;
17727;SDS011;8984;49.268;12.302;2023-11-19T12:26:36;1.90;;;1.50;;
17727;SDS011;8984;49.268;12.302;2023-11-19T12:29:04;1.80;;;1.50;;
17727;SDS011;8984;49.268;12.302;2023-11-19T12:31:32;2.00;;;1.80;;
17727;SDS011;8984;49.268;12.302;2023-11-19T12:34:04;2.20;;;1.80;;
17727;SDS011;8984;49.268;12.302;2023-11-19T12:36:36;2.17;;;1.60;;
17727;SDS011;8984;49.268;12.302;2023-11-19T12:39:06;2.07;;;1.57;;
17727;SDS011;8984;49.268;12.302;2023-11-19T12:41:33;2.43;;;1.70;;
17727;SDS011;8984;49.268;12.302;2023-11-19T12:44:16;2.57;;;1.70;;
17727;SDS011;8984;49.268;12.302;2023-11-19T12:46:44;1.90;;;1.70;;
17727;SDS011;8984;49.268;12.302;2023-11-19T12:49:11;2.53;;;1.93;;
17727;SDS011;8984;49.268;12.302;2023-11-19T12:51:37;3.83;;;1.73;;
17727;SDS011;8984;49.268;12.302;2023-11-19T12:54:06;3.57;;;1.73;;
17727;SDS011;8984;49.268;12.302;2023-11-19T12:56:32;1.93;;;1.50;;
17727;SDS011;8984;49.268;12.302;2023-11-19T12:59:09;3.53;;;1.87;;
17727;SDS011;8984;49.268;12.302;2023-11-19T13:01:38;2.67;;;1.80;;
17727;SDS011;8984;49.268;12.302;2023-11-19T13:04:15;2.87;;;1.50;;
17727;SDS011;8984;49.268;12.302;2023-11-19T13:06:44;2.20;;;2.00;;
17727;SDS011;8984;49.268;12.302;2023-11-19T13:09:22;3.30;;;2.00;;
17727;SDS011;8984;49.268;12.302;2023-11-19T13:11:49;3.60;;;1.90;;
17727;SDS011;8984;49.268;12.302;2023-11-19T13:14:16;2.60;;;1.93;;
17727;SDS011;8984;49.268;12.302;2023-11-19T13:16:44;4.43;;;2.67;;
17727;SDS011;8984;49.268;12.302;2023-11-19T13:19:11;2.37;;;2.10;;
17727;SDS011;8984;49.268;12.302;2023-11-19T13:21:38;5.33;;;1.90;;
17727;SDS011;8984;49.268;12.302;2023-11-19T13:24:05;4.07;;;1.93;;
17727;SDS011;8984;49.268;12.302;2023-11-19T13:26:33;3.27;;;1.70;;
17727;SDS011;8984;49.268;12.302;2023-11-19T13:29:00;1.87;;;1.53;;
17727;SDS011;8984;49.268;12.302;2023-11-19T13:31:27;4.07;;;1.70;;
17727;SDS011;8984;49.268;12.302;2023-11-19T13:33:54;1.87;;;1.50;;
17727;SDS011;8984;49.268;12.302;2023-11-19T13:36:21;2.83;;;1.47;;
17727;SDS011;8984;49.268;12.302;2023-11-19T13:38:48;1.60;;;1.50;;
17727;SDS011;8984;49.268;12.302;2023-11-19T13:41:15;2.83;;;1.70;;
17727;SDS011;8984;49.268;12.302;2023-11-19T13:43:43;4.37;;;2.00;;
17727;SDS011;8984;49.268;12.302;2023-11-19T13:46:10;2.47;;;1.70;;
17727;SDS011;8984;49.268;12.302;2023-11-19T13:48:37;3.37;;;1.73;;
17727;SDS011;8984;49.268;12.302;2023-11-19T13:51:04;2.27;;;1.70;;
17727;SDS011;8984;49.268;12.302;2023-11-19T13:53:31;11.13;;;7.30;;
17727;SDS011;8984;49.268;12.302;2023-11-19T13:55:58;9.93;;;6.77;;
17727;SDS011;8984;49.268;12.302;2023-11-19T13:58:25;3.17;;;2.53;;
17727;SDS011;8984;49.268;12.302;2023-11-19T14:00:53;6.90;;;4.20;;
17727;SDS011;8984;49.268;12.302;2023-11-19T14:03:20;6.93;;;3.77;;
17727;SDS011;8984;49.268;12.302;2023-11-19T14:05:47;5.80;;;3.97;;
17727;SDS011;8984;49.268;12.302;2023-11-19T14:08:17;4.90;;;3.13;;
17727;SDS011;8984;49.268;12.302;2023-11-19T14:10:44;3.47;;;2.30;;
17727;SDS011;8984;49.268;12.302;2023-11-19T14:13:11;4.83;;;3.03;;
17727;SDS011;8984;49.268;12.302;2023-11-19T14:15:40;2.20;;;2.00;;
17727;SDS011;8984;49.268;12.302;2023-11-19T14:18:08;4.30;;;2.80;;
17727;SDS011;8984;49.268;12.302;2023-11-19T14:20:35;7.83;;;5.50;;
17727;SDS011;8984;49.268;12.302;2023-11-19T14:23:02;4.70;;;2.13;;
17727;SDS011;8984;49.268;12.302;2023-11-19T14:25:29;4.73;;;1.90;;
17727;SDS011;8984;49.268;12.302;2023-11-19T14:27:56;2.90;;;2.00;;
17727;SDS011;8984;49.268;12.302;2023-11-19T14:30:23;2.23;;;1.53;;
17727;SDS011;8984;49.268;12.302;2023-11-19T14:32:50;3.20;;;1.77;;
17727;SDS011;8984;49.268;12.302;2023-11-19T14:35:18;2.17;;;1.67;;
17727;SDS011;8984;49.268;12.302;2023-11-19T14:37:45;3.73;;;2.20;;
17727;SDS011;8984;49.268;12.302;2023-11-19T14:40:12;2.60;;;1.60;;
17727;SDS011;8984;49.268;12.302;2023-11-19T14:42:39;3.23;;;1.60;;
17727;SDS011;8984;49.268;12.302;2023-11-19T14:45:06;2.23;;;1.43;;
17727;SDS011;8984;49.268;12.302;2023-11-19T14:47:37;3.63;;;1.70;;
17727;SDS011;8984;49.268;12.302;2023-11-19T14:50:04;1.90;;;1.40;;
17727;SDS011;8984;49.268;12.302;2023-11-19T14:52:33;3.13;;;1.53;;
17727;SDS011;8984;49.268;12.302;2023-11-19T14:55:01;2.77;;;1.50;;
17727;SDS011;8984;49.268;12.302;2023-11-19T14:57:27;2.77;;;1.43;;
17727;SDS011;8984;49.268;12.302;2023-11-19T14:59:54;3.43;;;1.43;;
17727;SDS011;8984;49.268;12.302;2023-11-19T15:02:21;3.87;;;1.70;;